sensor_id;sensor_type;location;lat;lon;timestamp;pressure;altitude;pressure_sealevel;temperature;humidity
48041;BME280;33815;48.386;11.738;2023-02-13T00:00:11;98467.06;;;-0.67;100.00
48041;BME280;33815;48.386;11.738;2023-02-13T00:02:36;98462.53;;;-0.55;100.00
48041;BME280;33815;48.386;11.738;2023-02-13T00:05:02;98473.25;;;-0.39;100.00
48041;BME280;33815;48.386;11.738;2023-02-13T00:07:27;98448.06;;;-0.57;100.00
48041;BME280;33815;48.386;11.738;2023-02-13T00:09:52;98464.19;;;-0.54;100.00
48041;BME280;33815;48.386;11.738;2023-02-13T00:12:17;98456.72;;;-0.63;100.00
48041;BME280;33815;48.386;11.738;2023-02-13T00:14:43;98446.78;;;-0.77;100.00
48041;BME280;33815;48.386;11.738;2023-02-13T00:17:08;98452.78;;;-0.78;100.00
48041;BME280;33815;48.386;11.738;2023-02-13T00:19:33;98458.47;;;-0.65;100.00
48041;BME280;33815;48.386;11.738;2023-02-13T00:21:58;98427.16;;;-0.76;100.00
48041;BME280;33815;48.386;11.738;2023-02-13T00:24:24;98430.06;;;-0.54;100.00
48041;BME280;33815;48.386;11.738;2023-02-13T00:26:49;98438.06;;;-0.68;100.00
48041;BME280;33815;48.386;11.738;2023-02-13T00:29:15;98441.53;;;-0.71;100.00
48041;BME280;33815;48.386;11.738;2023-02-13T00:31:40;98446.75;;;-0.75;100.00
48041;BME280;33815;48.386;11.738;2023-02-13T00:34:05;98433.44;;;-0.90;100.00
48041;BME280;33815;48.386;11.738;2023-02-13T00:36:31;98447.69;;;-0.79;100.00
48041;BME280;33815;48.386;11.738;2023-02-13T00:38:56;98434.19;;;-0.86;100.00
48041;BME280;33815;48.386;11.738;2023-02-13T00:41:22;98432.63;;;-0.54;100.00
48041;BME280;33815;48.386;11.738;2023-02-13T00:43:48;98430.72;;;-0.83;100.00
48041;BME280;33815;48.386;11.738;2023-02-13T00:46:14;98444.28;;;-0.78;100.00
48041;BME280;33815;48.386;11.738;2023-02-13T00:48:40;98432.09;;;-0.68;100.00
48041;BME280;33815;48.386;11.738;2023-02-13T00:51:06;98448.34;;;-0.70;100.00
48041;BME280;33815;48.386;11.738;2023-02-13T00:53:32;98445.91;;;-0.74;100.00
48041;BME280;33815;48.386;11.738;2023-02-13T00:55:57;98437.28;;;-0.72;100.00
48041;BME280;33815;48.386;11.738;2023-02-13T00:58:23;98436.63;;;-0.81;100.00
48041;BME280;33815;48.386;11.738;2023-02-13T01:00:49;98430.66;;;-0.80;100.00
48041;BME280;33815;48.386;11.738;2023-02-13T01:03:16;98440.19;;;-0.87;100.00
48041;BME280;33815;48.386;11.738;2023-02-13T01:05:43;98436.97;;;-0.95;100.00
48041;BME280;33815;48.386;11.738;2023-02-13T01:08:09;98434.56;;;-1.03;100.00
48041;BME280;33815;48.386;11.738;2023-02-13T01:10:36;98425.19;;;-1.04;100.00
48041;BME280;33815;48.386;11.738;2023-02-13T01:13:02;98436.31;;;-1.05;100.00
48041;BME280;33815;48.386;11.738;2023-02-13T01:15:27;98442.19;;;-1.01;100.00
48041;BME280;33815;48.386;11.738;2023-02-13T01:17:53;98432.53;;;-0.89;100.00
48041;BME280;33815;48.386;11.738;2023-02-13T01:20:19;98437.72;;;-0.92;100.00
48041;BME280;33815;48.386;11.738;2023-02-13T01:22:44;98435.84;;;-0.83;100.00
48041;BME280;33815;48.386;11.738;2023-02-13T01:25:10;98420.66;;;-0.93;100.00
48041;BME280;33815;48.386;11.738;2023-02-13T01:27:35;98432.63;;;-0.93;100.00
48041;BME280;33815;48.386;11.738;2023-02-13T01:30:03;98425.88;;;-0.96;100.00
48041;BME280;33815;48.386;11.738;2023-02-13T01:32:29;98426.00;;;-1.02;100.00
48041;BME280;33815;48.386;11.738;2023-02-13T01:34:54;98439.59;;;-1.00;100.00
48041;BME280;33815;48.386;11.738;2023-02-13T01:37:19;98442.88;;;-0.93;100.00
48041;BME280;33815;48.386;11.738;2023-02-13T01:39:44;98442.88;;;-0.93;100.00
48041;BME280;33815;48.386;11.738;2023-02-13T01:42:21;98437.53;;;-0.82;100.00
48041;BME280;33815;48.386;11.738;2023-02-13T01:44:51;98414.72;;;-0.93;100.00
48041;BME280;33815;48.386;11.738;2023-02-13T01:47:25;98432.59;;;-0.92;100.00
48041;BME280;33815;48.386;11.738;2023-02-13T01:49:59;98414.84;;;-0.98;100.00
48041;BME280;33815;48.386;11.738;2023-02-13T01:52:27;98430.25;;;-1.01;100.00
48041;BME280;33815;48.386;11.738;2023-02-13T01:54:53;98421.88;;;-1.08;100.00
48041;BME280;33815;48.386;11.738;2023-02-13T01:57:20;98420.03;;;-1.01;100.00
48041;BME280;33815;48.386;11.738;2023-02-13T01:59:54;98429.75;;;-1.18;100.00
48041;BME280;33815;48.386;11.738;2023-02-13T02:02:21;98431.47;;;-1.19;100.00
48041;BME280;33815;48.386;11.738;2023-02-13T02:04:47;98440.06;;;-1.22;100.00
48041;BME280;33815;48.386;11.738;2023-02-13T02:07:26;98441.53;;;-1.11;100.00
48041;BME280;33815;48.386;11.738;2023-02-13T02:09:57;98437.50;;;-1.22;100.00
48041;BME280;33815;48.386;11.738;2023-02-13T02:12:26;98424.03;;;-1.30;100.00
48041;BME280;33815;48.386;11.738;2023-02-13T02:14:54;98438.25;;;-1.18;100.00
48041;BME280;33815;48.386;11.738;2023-02-13T02:17:22;98421.59;;;-1.38;100.00
48041;BME280;33815;48.386;11.738;2023-02-13T02:20:22;98433.44;;;-1.32;100.00
48041;BME280;33815;48.386;11.738;2023-02-13T02:23:11;98447.09;;;-1.33;100.00
48041;BME280;33815;48.386;11.738;2023-02-13T02:43:32;98419.91;;;-1.37;100.00
48041;BME280;33815;48.386;11.738;2023-02-13T02:46:32;98435.00;;;-1.25;100.00
48041;BME280;33815;48.386;11.738;2023-02-13T02:49:05;98433.97;;;-1.16;100.00
48041;BME280;33815;48.386;11.738;2023-02-13T02:52:04;98441.81;;;-1.25;100.00
48041;BME280;33815;48.386;11.738;2023-02-13T02:54:44;98435.88;;;-1.26;100.00
48041;BME280;33815;48.386;11.738;2023-02-13T02:57:34;98434.19;;;-1.27;100.00
48041;BME280;33815;48.386;11.738;2023-02-13T03:00:23;98430.50;;;-1.13;100.00
48041;BME280;33815;48.386;11.738;2023-02-13T03:03:19;98424.72;;;-1.22;100.00
48041;BME280;33815;48.386;11.738;2023-02-13T03:06:11;98433.38;;;-1.29;100.00
48041;BME280;33815;48.386;11.738;2023-02-13T03:08:41;98425.78;;;-1.33;100.00
48041;BME280;33815;48.386;11.738;2023-02-13T03:11:26;98414.59;;;-1.28;100.00
48041;BME280;33815;48.386;11.738;2023-02-13T03:14:13;98431.19;;;-1.05;100.00
48041;BME280;33815;48.386;11.738;2023-02-13T03:16:39;98410.63;;;-1.43;100.00
48041;BME280;33815;48.386;11.738;2023-02-13T03:19:42;98424.16;;;-1.38;100.00
48041;BME280;33815;48.386;11.738;2023-02-13T03:22:44;98426.81;;;-1.42;100.00
48041;BME280;33815;48.386;11.738;2023-02-13T03:25:22;98422.50;;;-1.39;100.00
48041;BME280;33815;48.386;11.738;2023-02-13T03:28:11;98437.59;;;-1.28;100.00
48041;BME280;33815;48.386;11.738;2023-02-13T03:31:13;98438.75;;;-1.41;100.00
48041;BME280;33815;48.386;11.738;2023-02-13T03:33:57;98441.13;;;-1.32;100.00
48041;BME280;33815;48.386;11.738;2023-02-13T03:37:01;98431.03;;;-1.40;100.00
48041;BME280;33815;48.386;11.738;2023-02-13T03:42:41;98437.75;;;-1.34;100.00
48041;BME280;33815;48.386;11.738;2023-02-13T03:45:24;98437.78;;;-1.35;100.00
48041;BME280;33815;48.386;11.738;2023-02-13T03:48:13;98433.50;;;-1.35;100.00
48041;BME280;33815;48.386;11.738;2023-02-13T03:51:14;98435.19;;;-1.34;100.00
48041;BME280;33815;48.386;11.738;2023-02-13T03:53:41;98438.41;;;-1.24;100.00
48041;BME280;33815;48.386;11.738;2023-02-13T03:56:12;98412.25;;;-1.39;100.00
48041;BME280;33815;48.386;11.738;2023-02-13T03:58:58;98426.09;;;-1.49;100.00
48041;BME280;33815;48.386;11.738;2023-02-13T04:01:38;98425.59;;;-1.24;100.00
48041;BME280;33815;48.386;11.738;2023-02-13T04:04:22;98421.06;;;-1.53;100.00
48041;BME280;33815;48.386;11.738;2023-02-13T04:06:54;98412.34;;;-1.43;100.00
48041;BME280;33815;48.386;11.738;2023-02-13T04:09:24;98423.75;;;-1.16;100.00
48041;BME280;33815;48.386;11.738;2023-02-13T04:12:05;98410.44;;;-1.32;100.00
48041;BME280;33815;48.386;11.738;2023-02-13T04:14:56;98425.31;;;-1.52;100.00
48041;BME280;33815;48.386;11.738;2023-02-13T04:17:39;98428.91;;;-1.63;100.00
48041;BME280;33815;48.386;11.738;2023-02-13T04:20:06;98423.75;;;-1.60;100.00
48041;BME280;33815;48.386;11.738;2023-02-13T04:22:32;98432.78;;;-1.43;100.00
48041;BME280;33815;48.386;11.738;2023-02-13T04:24:57;98435.28;;;-1.39;100.00
48041;BME280;33815;48.386;11.738;2023-02-13T04:27:24;98442.16;;;-1.42;100.00
48041;BME280;33815;48.386;11.738;2023-02-13T04:29:51;98441.09;;;-1.30;100.00
48041;BME280;33815;48.386;11.738;2023-02-13T04:32:16;98435.25;;;-1.37;100.00
48041;BME280;33815;48.386;11.738;2023-02-13T04:34:42;98426.16;;;-1.52;100.00
48041;BME280;33815;48.386;11.738;2023-02-13T04:37:07;98439.84;;;-1.55;100.00
48041;BME280;33815;48.386;11.738;2023-02-13T04:39:32;98437.47;;;-1.64;100.00
48041;BME280;33815;48.386;11.738;2023-02-13T04:41:57;98428.97;;;-1.66;100.00
48041;BME280;33815;48.386;11.738;2023-02-13T04:44:23;98430.78;;;-1.71;100.00
48041;BME280;33815;48.386;11.738;2023-02-13T04:46:48;98430.09;;;-1.79;100.00
48041;BME280;33815;48.386;11.738;2023-02-13T04:49:13;98433.31;;;-1.69;100.00
48041;BME280;33815;48.386;11.738;2023-02-13T04:51:38;98441.72;;;-1.64;100.00
48041;BME280;33815;48.386;11.738;2023-02-13T04:54:04;98442.66;;;-1.67;100.00
48041;BME280;33815;48.386;11.738;2023-02-13T04:56:29;98441.47;;;-1.50;100.00
48041;BME280;33815;48.386;11.738;2023-02-13T04:58:54;98428.16;;;-1.68;100.00
48041;BME280;33815;48.386;11.738;2023-02-13T05:01:20;98439.03;;;-1.57;100.00
48041;BME280;33815;48.386;11.738;2023-02-13T05:03:46;98437.34;;;-1.58;100.00
48041;BME280;33815;48.386;11.738;2023-02-13T05:06:11;98455.28;;;-1.59;100.00
48041;BME280;33815;48.386;11.738;2023-02-13T05:08:37;98435.03;;;-1.72;100.00
48041;BME280;33815;48.386;11.738;2023-02-13T05:11:02;98453.53;;;-1.59;100.00
48041;BME280;33815;48.386;11.738;2023-02-13T05:13:27;98458.78;;;-1.65;100.00
48041;BME280;33815;48.386;11.738;2023-02-13T05:15:53;98461.28;;;-1.62;100.00
48041;BME280;33815;48.386;11.738;2023-02-13T05:18:18;98457.84;;;-1.61;100.00
48041;BME280;33815;48.386;11.738;2023-02-13T05:20:44;98459.56;;;-1.60;100.00
48041;BME280;33815;48.386;11.738;2023-02-13T05:23:13;98442.69;;;-1.70;100.00
48041;BME280;33815;48.386;11.738;2023-02-13T05:25:48;98436.00;;;-1.77;100.00
48041;BME280;33815;48.386;11.738;2023-02-13T05:28:13;98455.38;;;-1.64;100.00
48041;BME280;33815;48.386;11.738;2023-02-13T05:30:57;98458.66;;;-1.57;100.00
48041;BME280;33815;48.386;11.738;2023-02-13T05:33:22;98447.63;;;-1.61;100.00
48041;BME280;33815;48.386;11.738;2023-02-13T05:35:48;98459.50;;;-1.57;100.00
48041;BME280;33815;48.386;11.738;2023-02-13T05:38:13;98462.84;;;-1.55;100.00
48041;BME280;33815;48.386;11.738;2023-02-13T05:40:38;98451.13;;;-1.65;100.00
48041;BME280;33815;48.386;11.738;2023-02-13T05:43:03;98441.00;;;-1.71;100.00
48041;BME280;33815;48.386;11.738;2023-02-13T05:45:29;98452.69;;;-1.58;100.00
48041;BME280;33815;48.386;11.738;2023-02-13T05:47:54;98436.44;;;-1.55;100.00
48041;BME280;33815;48.386;11.738;2023-02-13T05:50:19;98423.69;;;-1.57;100.00
48041;BME280;33815;48.386;11.738;2023-02-13T05:52:44;98423.88;;;-1.67;100.00
48041;BME280;33815;48.386;11.738;2023-02-13T05:55:10;98448.47;;;-1.60;100.00
48041;BME280;33815;48.386;11.738;2023-02-13T05:57:35;98442.97;;;-1.39;100.00
48041;BME280;33815;48.386;11.738;2023-02-13T06:00:00;98452.91;;;-1.25;100.00
48041;BME280;33815;48.386;11.738;2023-02-13T06:02:26;98444.84;;;-1.48;100.00
48041;BME280;33815;48.386;11.738;2023-02-13T06:04:51;98457.72;;;-1.55;100.00
48041;BME280;33815;48.386;11.738;2023-02-13T06:07:16;98465.25;;;-1.45;100.00
48041;BME280;33815;48.386;11.738;2023-02-13T06:09:42;98450.09;;;-1.56;100.00
48041;BME280;33815;48.386;11.738;2023-02-13T06:12:07;98473.88;;;-1.51;100.00
48041;BME280;33815;48.386;11.738;2023-02-13T06:14:32;98479.88;;;-1.53;100.00
48041;BME280;33815;48.386;11.738;2023-02-13T06:16:59;98454.47;;;-1.61;100.00
48041;BME280;33815;48.386;11.738;2023-02-13T06:19:25;98480.72;;;-1.51;100.00
48041;BME280;33815;48.386;11.738;2023-02-13T06:21:50;98482.09;;;-1.35;100.00
48041;BME280;33815;48.386;11.738;2023-02-13T06:24:15;98484.81;;;-1.43;100.00
48041;BME280;33815;48.386;11.738;2023-02-13T06:26:41;98473.19;;;-1.61;100.00
48041;BME280;33815;48.386;11.738;2023-02-13T06:29:06;98473.25;;;-1.64;100.00
48041;BME280;33815;48.386;11.738;2023-02-13T06:31:33;98484.84;;;-1.44;100.00
48041;BME280;33815;48.386;11.738;2023-02-13T06:33:58;98472.91;;;-1.45;100.00
48041;BME280;33815;48.386;11.738;2023-02-13T06:36:23;98485.84;;;-1.53;100.00
48041;BME280;33815;48.386;11.738;2023-02-13T06:38:49;98485.97;;;-1.59;100.00
48041;BME280;33815;48.386;11.738;2023-02-13T06:41:14;98489.53;;;-1.68;100.00
48041;BME280;33815;48.386;11.738;2023-02-13T06:43:39;98485.34;;;-1.72;100.00
48041;BME280;33815;48.386;11.738;2023-02-13T06:46:05;98496.28;;;-1.64;100.00
48041;BME280;33815;48.386;11.738;2023-02-13T06:48:31;98497.97;;;-1.64;100.00
48041;BME280;33815;48.386;11.738;2023-02-13T06:50:56;98495.31;;;-1.58;100.00
48041;BME280;33815;48.386;11.738;2023-02-13T06:53:21;98501.78;;;-1.39;100.00
48041;BME280;33815;48.386;11.738;2023-02-13T06:55:50;98478.25;;;-1.58;100.00
48041;BME280;33815;48.386;11.738;2023-02-13T06:58:16;98486.81;;;-1.60;100.00
48041;BME280;33815;48.386;11.738;2023-02-13T07:00:41;98497.78;;;-1.53;100.00
48041;BME280;33815;48.386;11.738;2023-02-13T07:03:06;98492.81;;;-1.63;100.00
48041;BME280;33815;48.386;11.738;2023-02-13T07:05:32;98507.84;;;-1.43;100.00
48041;BME280;33815;48.386;11.738;2023-02-13T07:07:57;98515.28;;;-1.30;100.00
48041;BME280;33815;48.386;11.738;2023-02-13T07:10:23;98522.97;;;-1.30;100.00
48041;BME280;33815;48.386;11.738;2023-02-13T07:12:48;98523.00;;;-1.33;100.00
48041;BME280;33815;48.386;11.738;2023-02-13T07:15:14;98516.25;;;-1.38;100.00
48041;BME280;33815;48.386;11.738;2023-02-13T07:17:40;98533.97;;;-1.27;100.00
48041;BME280;33815;48.386;11.738;2023-02-13T07:20:06;98540.88;;;-1.30;100.00
48041;BME280;33815;48.386;11.738;2023-02-13T07:22:32;98543.53;;;-1.38;100.00
48041;BME280;33815;48.386;11.738;2023-02-13T07:24:57;98533.41;;;-1.43;100.00
48041;BME280;33815;48.386;11.738;2023-02-13T07:27:24;98546.03;;;-1.35;100.00
48041;BME280;33815;48.386;11.738;2023-02-13T07:29:49;98534.25;;;-1.42;100.00
48041;BME280;33815;48.386;11.738;2023-02-13T07:32:14;98534.97;;;-1.35;100.00
48041;BME280;33815;48.386;11.738;2023-02-13T07:34:40;98549.22;;;-1.22;100.00
48041;BME280;33815;48.386;11.738;2023-02-13T07:37:06;98550.84;;;-1.16;100.00
48041;BME280;33815;48.386;11.738;2023-02-13T07:39:31;98553.19;;;-1.06;100.00
48041;BME280;33815;48.386;11.738;2023-02-13T07:41:56;98542.22;;;-1.12;100.00
48041;BME280;33815;48.386;11.738;2023-02-13T07:44:22;98554.88;;;-1.05;100.00
48041;BME280;33815;48.386;11.738;2023-02-13T07:46:47;98544.41;;;-0.92;100.00
48041;BME280;33815;48.386;11.738;2023-02-13T07:49:12;98544.06;;;-0.75;100.00
48041;BME280;33815;48.386;11.738;2023-02-13T07:51:37;98548.91;;;-0.61;100.00
48041;BME280;33815;48.386;11.738;2023-02-13T07:54:03;98533.81;;;-0.75;100.00
48041;BME280;33815;48.386;11.738;2023-02-13T07:56:28;98545.81;;;-0.79;100.00
48041;BME280;33815;48.386;11.738;2023-02-13T07:58:54;98550.19;;;-0.82;100.00
48041;BME280;33815;48.386;11.738;2023-02-13T08:01:19;98542.00;;;-0.59;100.00
48041;BME280;33815;48.386;11.738;2023-02-13T08:03:47;98550.81;;;-0.71;100.00
48041;BME280;33815;48.386;11.738;2023-02-13T08:06:15;98555.75;;;-0.63;100.00
48041;BME280;33815;48.386;11.738;2023-02-13T08:08:41;98555.53;;;-0.53;100.00
48041;BME280;33815;48.386;11.738;2023-02-13T08:11:17;98556.41;;;-0.54;100.00
48041;BME280;33815;48.386;11.738;2023-02-13T08:14:04;98552.72;;;-0.40;100.00
48041;BME280;33815;48.386;11.738;2023-02-13T08:16:30;98540.84;;;-0.44;100.00
48041;BME280;33815;48.386;11.738;2023-02-13T08:18:55;98535.53;;;-0.37;100.00
48041;BME280;33815;48.386;11.738;2023-02-13T08:21:20;98538.28;;;-0.44;100.00
48041;BME280;33815;48.386;11.738;2023-02-13T08:23:45;98543.03;;;-0.27;100.00
48041;BME280;33815;48.386;11.738;2023-02-13T08:26:12;98543.06;;;-0.29;100.00
48041;BME280;33815;48.386;11.738;2023-02-13T08:28:38;98552.03;;;-0.09;100.00
48041;BME280;33815;48.386;11.738;2023-02-13T08:31:09;98547.03;;;-0.14;100.00
48041;BME280;33815;48.386;11.738;2023-02-13T08:33:34;98547.03;;;-0.15;100.00
48041;BME280;33815;48.386;11.738;2023-02-13T08:36:02;98553.22;;;-0.24;100.00
48041;BME280;33815;48.386;11.738;2023-02-13T08:38:27;98558.13;;;-0.15;100.00
48041;BME280;33815;48.386;11.738;2023-02-13T08:40:55;98554.75;;;-0.17;100.00
48041;BME280;33815;48.386;11.738;2023-02-13T08:43:21;98558.25;;;0.16;100.00
48041;BME280;33815;48.386;11.738;2023-02-13T08:45:46;98544.22;;;-0.05;100.00
48041;BME280;33815;48.386;11.738;2023-02-13T08:48:11;98519.22;;;-0.32;100.00
48041;BME280;33815;48.386;11.738;2023-02-13T08:50:36;98536.97;;;-0.23;100.00
48041;BME280;33815;48.386;11.738;2023-02-13T08:53:02;98566.31;;;0.01;100.00
48041;BME280;33815;48.386;11.738;2023-02-13T08:55:27;98551.47;;;0.15;100.00
48041;BME280;33815;48.386;11.738;2023-02-13T08:57:54;98571.00;;;0.20;100.00
48041;BME280;33815;48.386;11.738;2023-02-13T09:00:20;98561.16;;;0.03;100.00
48041;BME280;33815;48.386;11.738;2023-02-13T09:02:45;98552.44;;;0.10;100.00
48041;BME280;33815;48.386;11.738;2023-02-13T09:05:11;98563.19;;;0.26;100.00
48041;BME280;33815;48.386;11.738;2023-02-13T09:07:36;98552.00;;;0.28;100.00
48041;BME280;33815;48.386;11.738;2023-02-13T09:10:01;98576.16;;;0.54;100.00
48041;BME280;33815;48.386;11.738;2023-02-13T09:12:26;98577.91;;;0.54;100.00
48041;BME280;33815;48.386;11.738;2023-02-13T09:14:52;98564.28;;;0.15;100.00
48041;BME280;33815;48.386;11.738;2023-02-13T09:17:17;98564.88;;;0.25;100.00
48041;BME280;33815;48.386;11.738;2023-02-13T09:19:43;98558.47;;;0.09;100.00
48041;BME280;33815;48.386;11.738;2023-02-13T09:22:10;98571.28;;;0.09;100.00
48041;BME280;33815;48.386;11.738;2023-02-13T09:24:36;98570.22;;;0.17;100.00
48041;BME280;33815;48.386;11.738;2023-02-13T09:27:03;98567.66;;;0.17;100.00
48041;BME280;33815;48.386;11.738;2023-02-13T09:29:29;98573.44;;;0.26;100.00
48041;BME280;33815;48.386;11.738;2023-02-13T09:31:55;98562.75;;;0.43;100.00
48041;BME280;33815;48.386;11.738;2023-02-13T09:34:21;98568.25;;;0.63;100.00
48041;BME280;33815;48.386;11.738;2023-02-13T09:36:50;98578.03;;;0.47;100.00
48041;BME280;33815;48.386;11.738;2023-02-13T09:39:15;98567.03;;;0.44;100.00
48041;BME280;33815;48.386;11.738;2023-02-13T09:41:42;98581.13;;;0.60;100.00
48041;BME280;33815;48.386;11.738;2023-02-13T09:44:18;98555.03;;;0.44;100.00
48041;BME280;33815;48.386;11.738;2023-02-13T09:47:31;98583.13;;;0.49;100.00
48041;BME280;33815;48.386;11.738;2023-02-13T09:50:09;98576.38;;;0.45;100.00
48041;BME280;33815;48.386;11.738;2023-02-13T09:52:37;98579.28;;;0.32;100.00
48041;BME280;33815;48.386;11.738;2023-02-13T09:55:14;98573.69;;;0.51;100.00
48041;BME280;33815;48.386;11.738;2023-02-13T09:57:45;98580.22;;;0.63;100.00
48041;BME280;33815;48.386;11.738;2023-02-13T10:00:33;98578.34;;;0.70;100.00
48041;BME280;33815;48.386;11.738;2023-02-13T10:03:24;98581.16;;;0.93;100.00
48041;BME280;33815;48.386;11.738;2023-02-13T10:05:58;98587.28;;;0.88;100.00
48041;BME280;33815;48.386;11.738;2023-02-13T10:08:48;98588.34;;;0.80;100.00
48041;BME280;33815;48.386;11.738;2023-02-13T10:16:46;98571.50;;;1.01;100.00
48041;BME280;33815;48.386;11.738;2023-02-13T10:19:30;98570.97;;;1.22;100.00
48041;BME280;33815;48.386;11.738;2023-02-13T10:22:03;98576.06;;;0.92;100.00
48041;BME280;33815;48.386;11.738;2023-02-13T10:24:39;98576.53;;;1.06;100.00
48041;BME280;33815;48.386;11.738;2023-02-13T10:27:34;98572.59;;;1.24;100.00
48041;BME280;33815;48.386;11.738;2023-02-13T10:30:13;98578.81;;;1.17;100.00
48041;BME280;33815;48.386;11.738;2023-02-13T10:35:53;98571.53;;;1.63;100.00
48041;BME280;33815;48.386;11.738;2023-02-13T10:38:23;98562.19;;;1.29;100.00
48041;BME280;33815;48.386;11.738;2023-02-13T10:46:58;98559.53;;;1.62;100.00
48041;BME280;33815;48.386;11.738;2023-02-13T10:52:15;98555.47;;;1.54;100.00
48041;BME280;33815;48.386;11.738;2023-02-13T11:00:55;98549.22;;;1.63;100.00
48041;BME280;33815;48.386;11.738;2023-02-13T11:03:25;98542.91;;;1.74;100.00
48041;BME280;33815;48.386;11.738;2023-02-13T11:05:52;98538.25;;;1.85;100.00
48041;BME280;33815;48.386;11.738;2023-02-13T11:08:32;98531.63;;;1.78;100.00
48041;BME280;33815;48.386;11.738;2023-02-13T11:10:58;98532.25;;;1.86;100.00
48041;BME280;33815;48.386;11.738;2023-02-13T11:13:25;98532.19;;;1.87;100.00
48041;BME280;33815;48.386;11.738;2023-02-13T11:16:17;98527.47;;;1.74;100.00
48041;BME280;33815;48.386;11.738;2023-02-13T11:18:48;98527.41;;;1.75;100.00
48041;BME280;33815;48.386;11.738;2023-02-13T11:21:22;98524.31;;;1.94;100.00
48041;BME280;33815;48.386;11.738;2023-02-13T11:23:58;98534.53;;;1.95;100.00
48041;BME280;33815;48.386;11.738;2023-02-13T11:26:30;98520.06;;;2.45;100.00
48041;BME280;33815;48.386;11.738;2023-02-13T11:28:59;98518.16;;;2.25;100.00
48041;BME280;33815;48.386;11.738;2023-02-13T11:31:31;98523.25;;;2.26;100.00
48041;BME280;33815;48.386;11.738;2023-02-13T11:33:59;98516.03;;;2.11;100.00
48041;BME280;33815;48.386;11.738;2023-02-13T11:36:41;98523.56;;;2.17;100.00
48041;BME280;33815;48.386;11.738;2023-02-13T11:39:18;98529.03;;;2.33;100.00
48041;BME280;33815;48.386;11.738;2023-02-13T11:41:44;98526.66;;;2.27;100.00
48041;BME280;33815;48.386;11.738;2023-02-13T11:44:25;98519.78;;;2.54;100.00
48041;BME280;33815;48.386;11.738;2023-02-13T11:46:53;98523.88;;;2.58;100.00
48041;BME280;33815;48.386;11.738;2023-02-13T11:49:22;98526.09;;;2.69;100.00
48041;BME280;33815;48.386;11.738;2023-02-13T11:51:53;98526.28;;;2.64;100.00
48041;BME280;33815;48.386;11.738;2023-02-13T11:57:14;98532.00;;;2.72;100.00
48041;BME280;33815;48.386;11.738;2023-02-13T11:59:43;98521.94;;;2.65;100.00
48041;BME280;33815;48.386;11.738;2023-02-13T12:02:21;98526.91;;;2.46;100.00
48041;BME280;33815;48.386;11.738;2023-02-13T12:05:13;98519.53;;;2.60;100.00
48041;BME280;33815;48.386;11.738;2023-02-13T12:07:39;98516.50;;;2.49;100.00
48041;BME280;33815;48.386;11.738;2023-02-13T12:12:44;98521.06;;;2.66;100.00
48041;BME280;33815;48.386;11.738;2023-02-13T12:15:17;98512.06;;;2.52;100.00
48041;BME280;33815;48.386;11.738;2023-02-13T12:17:44;98518.59;;;2.63;100.00
48041;BME280;33815;48.386;11.738;2023-02-13T12:20:13;98518.44;;;2.67;100.00
48041;BME280;33815;48.386;11.738;2023-02-13T12:28:09;98506.88;;;3.03;100.00
48041;BME280;33815;48.386;11.738;2023-02-13T12:30:42;98501.38;;;2.88;100.00
48041;BME280;33815;48.386;11.738;2023-02-13T12:41:21;98496.53;;;2.81;100.00
48041;BME280;33815;48.386;11.738;2023-02-13T12:54:39;98482.03;;;3.25;100.00
48041;BME280;33815;48.386;11.738;2023-02-13T12:57:17;98478.13;;;3.37;100.00
48041;BME280;33815;48.386;11.738;2023-02-13T13:02:41;98469.13;;;3.25;100.00
48041;BME280;33815;48.386;11.738;2023-02-13T13:05:31;98457.34;;;3.20;100.00
48041;BME280;33815;48.386;11.738;2023-02-13T13:19:30;98478.44;;;3.30;100.00
48041;BME280;33815;48.386;11.738;2023-02-13T13:22:03;98454.16;;;3.35;100.00
48041;BME280;33815;48.386;11.738;2023-02-13T13:27:24;98485.88;;;3.59;100.00
48041;BME280;33815;48.386;11.738;2023-02-13T13:30:18;98470.03;;;3.69;100.00
48041;BME280;33815;48.386;11.738;2023-02-13T13:32:47;98475.69;;;3.56;100.00
48041;BME280;33815;48.386;11.738;2023-02-13T13:35:17;98459.09;;;3.64;100.00
48041;BME280;33815;48.386;11.738;2023-02-13T13:37:50;98476.63;;;3.98;100.00
48041;BME280;33815;48.386;11.738;2023-02-13T13:45:37;98465.75;;;3.69;100.00
48041;BME280;33815;48.386;11.738;2023-02-13T13:50:56;98472.31;;;3.99;100.00
48041;BME280;33815;48.386;11.738;2023-02-13T13:53:22;98466.91;;;3.83;100.00
48041;BME280;33815;48.386;11.738;2023-02-13T14:03:55;98447.53;;;3.94;100.00
48041;BME280;33815;48.386;11.738;2023-02-13T14:06:23;98440.94;;;4.08;100.00
48041;BME280;33815;48.386;11.738;2023-02-13T14:08:54;98450.78;;;4.20;100.00
48041;BME280;33815;48.386;11.738;2023-02-13T14:11:32;98451.66;;;3.99;100.00
48041;BME280;33815;48.386;11.738;2023-02-13T14:13:59;98444.94;;;4.15;100.00
48041;BME280;33815;48.386;11.738;2023-02-13T14:19:03;98434.78;;;4.33;100.00
48041;BME280;33815;48.386;11.738;2023-02-13T14:21:29;98436.53;;;4.32;100.00
48041;BME280;33815;48.386;11.738;2023-02-13T14:23:54;98438.09;;;4.55;100.00
48041;BME280;33815;48.386;11.738;2023-02-13T14:26:30;98438.44;;;4.48;100.00
48041;BME280;33815;48.386;11.738;2023-02-13T14:31:36;98452.53;;;4.20;100.00
48041;BME280;33815;48.386;11.738;2023-02-13T14:36:44;98436.09;;;4.21;100.00
48041;BME280;33815;48.386;11.738;2023-02-13T14:39:26;98444.94;;;4.15;100.00
48041;BME280;33815;48.386;11.738;2023-02-13T14:44:44;98423.22;;;4.00;100.00
48041;BME280;33815;48.386;11.738;2023-02-13T14:47:21;98432.94;;;3.93;100.00
48041;BME280;33815;48.386;11.738;2023-02-13T14:49:49;98442.38;;;3.94;100.00
48041;BME280;33815;48.386;11.738;2023-02-13T14:52:18;98435.19;;;3.81;100.00
48041;BME280;33815;48.386;11.738;2023-02-13T14:54:48;98433.28;;;3.86;100.00
48041;BME280;33815;48.386;11.738;2023-02-13T14:57:18;98426.91;;;3.94;100.00